Time,TemperatureF,DewpointF,PressureIn,WindDirection,WindDirectionDegrees,WindSpeedMPH,WindSpeedGustMPH,Humidity,HourlyPrecipIn,Conditions,Clouds,dailyrainin,SoftwareType,DateUTC
2013-03-09 00:01:00,32.5,25.5,23.71,WNW,284,0.0,0.0,75,0.00,,---,0.00,VWS V14.01,2013-03-09 07:01:00,
2013-03-09 00:07:00,32.7,25.7,23.71,WNW,284,0.0,0.0,75,0.00,,---,0.00,VWS V14.01,2013-03-09 07:07:00,
2013-03-09 00:13:00,32.9,25.9,23.68,WNW,284,0.0,0.0,75,0.00,,---,0.00,VWS V14.01,2013-03-09 07:13:00,
2013-03-09 00:19:00,32.7,25.7,23.68,WNW,284,0.0,0.0,75,0.00,,---,0.00,VWS V14.01,2013-03-09 07:19:00,
2013-03-09 00:25:00,32.7,25.4,23.68,WNW,284,0.0,0.0,74,0.00,,---,0.00,VWS V14.01,2013-03-09 07:25:00,
2013-03-09 00:30:00,32.5,25.2,23.68,WNW,284,0.0,0.0,74,0.00,,---,0.00,VWS V14.01,2013-03-09 07:30:00,
2013-03-09 00:36:00,32.5,25.2,23.68,WNW,284,0.0,0.0,74,0.00,,---,0.00,VWS V14.01,2013-03-09 07:36:00,
2013-03-09 00:42:00,32.2,24.8,23.68,WNW,284,0.0,0.0,74,0.00,,---,0.00,VWS V14.01,2013-03-09 07:42:00,
2013-03-09 00:47:00,32.0,24.3,23.68,WNW,284,0.0,0.0,73,0.00,,---,0.00,VWS V14.01,2013-03-09 07:47:00,
2013-03-09 00:53:00,31.5,23.8,23.68,WNW,284,0.0,0.0,73,0.00,,---,0.00,VWS V14.01,2013-03-09 07:53:00,
2013-03-09 00:59:00,31.3,23.6,23.68,WNW,284,0.0,0.0,73,0.00,,---,0.00,VWS V14.01,2013-03-09 07:59:00,
2013-03-09 01:08:00,30.9,23.3,23.68,WNW,284,0.0,0.0,73,0.16,,---,0.00,VWS V14.01,2013-03-09 08:08:00,
2013-03-09 01:13:00,30.6,23.3,23.68,WNW,284,0.0,0.0,74,0.00,,---,0.00,VWS V14.01,2013-03-09 08:13:00,
2013-03-09 01:19:00,30.4,23.1,23.68,WNW,284,0.0,0.0,74,0.00,,---,0.00,VWS V14.01,2013-03-09 08:19:00,
2013-03-09 01:25:00,30.2,22.9,23.68,WNW,284,0.0,0.0,74,0.00,,---,0.00,VWS V14.01,2013-03-09 08:25:00,
2013-03-09 01:30:00,30.2,23.2,23.68,WNW,284,0.0,0.0,75,0.00,,---,0.00,VWS V14.01,2013-03-09 08:30:00,
2013-03-09 01:35:00,30.2,23.2,23.68,WNW,284,0.0,0.0,75,0.00,,---,0.00,VWS V14.01,2013-03-09 08:35:00,
2013-03-09 01:40:00,30.2,23.2,23.68,WNW,284,0.0,0.0,75,0.00,,---,0.00,VWS V14.01,2013-03-09 08:40:00,
2013-03-09 01:46:00,30.0,23.1,23.68,WNW,284,0.0,0.0,75,0.00,,---,0.00,VWS V14.01,2013-03-09 08:46:00,
2013-03-09 01:52:00,29.8,23.2,23.68,WNW,284,0.0,0.0,76,0.00,,---,0.00,VWS V14.01,2013-03-09 08:52:00,
2013-03-09 01:58:00,29.7,23.0,23.68,WNW,284,0.0,0.0,76,0.00,,---,0.00,VWS V14.01,2013-03-09 08:58:00,
2013-03-09 02:04:00,29.7,23.0,23.68,WNW,284,0.0,0.0,76,0.00,,---,0.00,VWS V14.01,2013-03-09 09:04:00,
2013-03-09 02:09:00,29.7,23.0,23.68,WNW,284,0.0,0.0,76,0.00,,---,0.00,VWS V14.01,2013-03-09 09:09:00,
2013-03-09 02:14:00,29.8,23.5,23.68,WNW,284,0.0,0.0,77,0.00,,---,0.00,VWS V14.01,2013-03-09 09:14:00,
2013-03-09 02:20:00,30.0,23.7,23.68,WNW,284,0.0,0.0,77,0.00,,---,0.00,VWS V14.01,2013-03-09 09:20:00,
2013-03-09 02:25:00,30.0,23.7,23.68,WNW,284,0.0,0.0,77,0.00,,---,0.00,VWS V14.01,2013-03-09 09:25:00,
2013-03-09 02:31:00,30.4,24.0,23.68,WNW,284,0.0,0.0,77,0.00,,---,0.00,VWS V14.01,2013-03-09 09:31:00,
2013-03-09 02:36:00,30.6,24.5,23.68,WNW,284,0.0,0.0,78,0.00,,---,0.00,VWS V14.01,2013-03-09 09:36:00,
2013-03-09 02:42:00,30.7,24.7,23.65,WNW,284,0.0,0.0,78,0.00,,---,0.00,VWS V14.01,2013-03-09 09:42:00,
2013-03-09 02:47:00,30.9,24.6,23.65,WNW,284,0.0,0.0,77,0.00,,---,0.00,VWS V14.01,2013-03-09 09:47:00,
2013-03-09 02:52:00,31.1,25.0,23.65,WNW,284,0.0,0.0,78,0.00,,---,0.00,VWS V14.01,2013-03-09 09:52:00,
2013-03-09 02:58:00,31.1,25.0,23.65,WNW,284,0.0,0.0,78,0.00,,---,0.00,VWS V14.01,2013-03-09 09:58:00,
2013-03-09 03:03:00,31.1,25.0,23.65,WNW,284,0.0,0.0,78,0.00,,---,0.00,VWS V14.01,2013-03-09 10:03:00,
2013-03-09 03:09:00,31.5,25.4,23.65,WNW,284,0.0,0.0,78,0.00,,---,0.00,VWS V14.01,2013-03-09 10:09:00,
2013-03-09 03:15:00,31.6,25.6,23.65,WNW,284,0.0,0.0,78,0.00,,---,0.00,VWS V14.01,2013-03-09 10:15:00,
2013-03-09 03:21:00,31.8,25.8,23.65,WNW,284,0.0,0.0,78,0.00,,---,0.00,VWS V14.01,2013-03-09 10:21:00,
2013-03-09 03:26:00,31.8,25.8,23.68,WNW,284,0.0,0.0,78,0.00,,---,0.00,VWS V14.01,2013-03-09 10:26:00,
2013-03-09 03:32:00,32.0,25.9,23.68,WNW,284,0.0,0.0,78,0.00,,---,0.00,VWS V14.01,2013-03-09 10:32:00,
2013-03-09 03:37:00,32.0,25.9,23.68,WNW,284,0.0,0.0,78,0.00,,---,0.00,VWS V14.01,2013-03-09 10:37:00,
2013-03-09 03:42:00,32.2,26.1,23.68,WNW,284,0.0,0.0,78,0.00,,---,0.00,VWS V14.01,2013-03-09 10:42:00,
2013-03-09 03:47:00,32.2,25.8,23.68,WNW,284,0.0,0.0,77,0.00,,---,0.00,VWS V14.01,2013-03-09 10:47:00,
2013-03-09 03:53:00,32.2,25.8,23.68,WNW,284,0.0,0.0,77,0.00,,---,0.00,VWS V14.01,2013-03-09 10:53:00,
2013-03-09 03:58:00,32.2,25.8,23.68,WNW,284,0.0,0.0,77,0.00,,---,0.00,VWS V14.01,2013-03-09 10:58:00,
2013-03-09 04:04:00,32.0,25.6,23.68,WNW,284,0.0,0.0,77,0.00,,---,0.00,VWS V14.01,2013-03-09 11:04:00,
2013-03-09 04:10:00,32.0,25.6,23.68,WNW,284,0.0,0.0,77,0.00,,---,0.00,VWS V14.01,2013-03-09 11:10:00,
2013-03-09 04:15:00,32.0,25.6,23.68,WNW,284,0.0,0.0,77,0.00,,---,0.00,VWS V14.01,2013-03-09 11:15:00,
2013-03-09 04:20:00,32.0,25.6,23.68,WNW,284,0.0,0.0,77,0.00,,---,0.00,VWS V14.01,2013-03-09 11:20:00,
2013-03-09 04:25:00,32.2,25.8,23.68,WNW,284,0.0,0.0,77,0.00,,---,0.00,VWS V14.01,2013-03-09 11:25:00,
2013-03-09 04:31:00,32.2,25.8,23.68,WNW,284,0.0,0.0,77,0.00,,---,0.00,VWS V14.01,2013-03-09 11:31:00,
2013-03-09 04:36:00,32.2,26.1,23.68,SSW,199,0.0,0.0,78,0.00,,---,0.00,VWS V14.01,2013-03-09 11:36:00,
2013-03-09 04:41:00,32.5,26.5,23.68,SW,225,0.0,0.0,78,0.00,,---,0.00,VWS V14.01,2013-03-09 11:41:00,
2013-03-09 04:47:00,32.5,26.8,23.68,West,264,0.0,0.0,79,0.00,,---,0.00,VWS V14.01,2013-03-09 11:47:00,
2013-03-09 04:53:00,32.5,26.8,23.68,West,275,0.0,0.0,79,0.00,,---,0.00,VWS V14.01,2013-03-09 11:53:00,
2013-03-09 04:58:00,32.5,26.8,23.68,West,278,0.0,0.0,79,0.00,,---,0.00,VWS V14.01,2013-03-09 11:58:00,
2013-03-09 05:04:00,32.5,26.8,23.68,West,278,0.0,0.0,79,0.00,,---,0.00,VWS V14.01,2013-03-09 12:04:00,
2013-03-09 05:09:00,32.5,26.8,23.68,West,278,0.0,0.0,79,0.00,,---,0.00,VWS V14.01,2013-03-09 12:09:00,
2013-03-09 05:15:00,32.4,26.9,23.68,West,278,0.0,0.0,80,0.00,,---,0.00,VWS V14.01,2013-03-09 12:15:00,
2013-03-09 05:21:00,32.5,27.1,23.68,NW,320,0.0,0.0,80,0.00,,---,0.00,VWS V14.01,2013-03-09 12:21:00,
2013-03-09 05:27:00,32.5,27.1,23.68,NNE,21,0.0,0.0,80,0.00,,---,0.00,VWS V14.01,2013-03-09 12:27:00,
2013-03-09 05:32:00,32.5,27.1,23.68,North,353,0.0,4.5,80,0.00,,---,0.00,VWS V14.01,2013-03-09 12:32:00,
2013-03-09 05:37:00,32.5,27.1,23.68,North,9,0.0,0.0,80,0.00,,---,0.00,VWS V14.01,2013-03-09 12:37:00,
2013-03-09 05:43:00,32.7,27.5,23.68,North,8,0.0,0.0,81,0.00,,---,0.00,VWS V14.01,2013-03-09 12:43:00,
2013-03-09 05:49:00,32.5,27.4,23.68,NW,306,0.0,0.0,81,0.00,,---,0.00,VWS V14.01,2013-03-09 12:49:00,
2013-03-09 05:55:00,32.5,27.4,23.71,NW,306,0.0,0.0,81,0.00,,---,0.00,VWS V14.01,2013-03-09 12:55:00,
2013-03-09 06:00:00,32.5,27.4,23.71,NW,306,0.0,0.0,81,0.00,,---,0.00,VWS V14.01,2013-03-09 13:00:00,
2013-03-09 06:05:00,32.5,27.4,23.71,NW,306,0.0,0.0,81,0.00,,---,0.00,VWS V14.01,2013-03-09 13:05:00,
2013-03-09 06:10:00,32.5,27.4,23.71,NW,306,0.0,0.0,81,0.00,,---,0.00,VWS V14.01,2013-03-09 13:10:00,
2013-03-09 06:15:00,32.5,27.4,23.71,NNE,19,0.0,0.0,81,0.00,,---,0.00,VWS V14.01,2013-03-09 13:15:00,
2013-03-09 06:21:00,32.4,27.2,23.71,NNE,19,0.0,0.0,81,0.00,,---,0.00,VWS V14.01,2013-03-09 13:21:00,
2013-03-09 06:27:00,32.4,27.2,23.71,NNE,19,0.0,0.0,81,0.00,,---,0.00,VWS V14.01,2013-03-09 13:27:00,
2013-03-09 06:32:00,32.4,27.2,23.71,NNE,19,0.0,0.0,81,0.00,,---,0.00,VWS V14.01,2013-03-09 13:32:00,
2013-03-09 06:38:00,32.4,27.5,23.71,NNE,19,0.0,0.0,82,0.00,,---,0.00,VWS V14.01,2013-03-09 13:38:00,
2013-03-09 06:43:00,32.4,27.5,23.71,NNE,19,0.0,0.0,82,0.00,,---,0.00,VWS V14.01,2013-03-09 13:43:00,
2013-03-09 06:49:00,32.4,27.5,23.71,NNE,19,0.0,0.0,82,0.00,,---,0.00,VWS V14.01,2013-03-09 13:49:00,
2013-03-09 06:55:00,32.4,27.5,23.71,East,81,4.0,4.9,82,0.00,,---,0.00,VWS V14.01,2013-03-09 13:55:00,
2013-03-09 07:01:00,32.5,27.7,23.71,North,357,0.0,3.1,82,0.00,,---,0.00,VWS V14.01,2013-03-09 14:01:00,
2013-03-09 07:07:00,32.5,28.0,23.71,NNE,23,0.0,0.0,83,0.00,,---,0.00,VWS V14.01,2013-03-09 14:07:00,
2013-03-09 07:12:00,32.5,28.0,23.71,NE,43,3.6,4.0,83,0.00,,---,0.00,VWS V14.01,2013-03-09 14:12:00,
2013-03-09 07:17:00,32.4,28.1,23.71,NNE,22,2.7,3.1,84,0.00,,---,0.00,VWS V14.01,2013-03-09 14:17:00,
2013-03-09 07:23:00,32.2,27.9,23.71,NNE,23,0.0,4.0,84,0.00,,---,0.00,VWS V14.01,2013-03-09 14:23:00,
2013-03-09 07:29:00,32.0,27.7,23.71,ENE,75,0.0,4.0,84,0.00,,---,0.00,VWS V14.01,2013-03-09 14:29:00,
2013-03-09 07:35:00,32.0,28.0,23.71,NNE,28,2.7,2.7,85,0.00,,---,0.00,VWS V14.01,2013-03-09 14:35:00,
2013-03-09 07:40:00,32.0,28.0,23.71,North,3,3.1,3.1,85,0.00,,---,0.00,VWS V14.01,2013-03-09 14:40:00,
2013-03-09 07:45:00,32.0,28.3,23.71,NNE,27,0.0,0.0,86,0.00,,---,0.00,VWS V14.01,2013-03-09 14:45:00,
2013-03-09 07:51:00,31.8,28.1,23.71,NNE,32,0.0,0.0,86,0.00,,---,0.00,VWS V14.01,2013-03-09 14:51:00,
2013-03-09 07:57:00,31.8,28.4,23.71,NNE,32,0.0,0.0,87,0.00,,---,0.00,VWS V14.01,2013-03-09 14:57:00,
2013-03-09 08:03:00,32.0,28.6,23.71,NNE,32,0.0,0.0,87,0.00,,---,0.00,VWS V14.01,2013-03-09 15:03:00,
2013-03-09 08:09:00,32.0,28.6,23.71,NNE,29,0.0,0.0,87,0.00,,---,0.00,VWS V14.01,2013-03-09 15:09:00,
2013-03-09 08:15:00,32.2,29.0,23.71,NNE,16,0.0,0.0,88,0.00,,---,0.00,VWS V14.01,2013-03-09 15:15:00,
2013-03-09 08:21:00,32.2,29.0,23.71,North,357,4.0,4.0,88,0.00,,---,0.00,VWS V14.01,2013-03-09 15:21:00,
2013-03-09 08:26:00,32.2,29.0,23.74,NNE,33,0.0,4.0,88,0.00,,---,0.00,VWS V14.01,2013-03-09 15:26:00,
2013-03-09 08:32:00,32.2,29.0,23.74,NE,37,0.0,0.0,88,0.00,,---,0.00,VWS V14.01,2013-03-09 15:32:00,
2013-03-09 08:38:00,32.5,29.7,23.74,SSW,196,7.2,7.2,89,0.00,,---,0.00,VWS V14.01,2013-03-09 15:38:00,
2013-03-09 08:44:00,32.5,29.7,23.74,SE,144,6.7,6.7,89,0.00,,---,0.00,VWS V14.01,2013-03-09 15:44:00,
2013-03-09 08:50:00,32.4,29.5,23.74,North,10,0.0,3.1,89,0.00,,---,0.00,VWS V14.01,2013-03-09 15:50:00,
2013-03-09 08:56:00,32.4,29.8,23.74,SE,133,3.1,3.6,90,0.00,,---,0.00,VWS V14.01,2013-03-09 15:56:00,
2013-03-09 09:01:00,32.2,29.6,23.74,East,79,6.3,6.3,90,0.00,,---,0.00,VWS V14.01,2013-03-09 16:01:00,
2013-03-09 09:07:00,32.2,29.6,23.74,South,190,0.0,3.6,90,0.00,,---,0.00,VWS V14.01,2013-03-09 16:07:00,
2013-03-09 09:13:00,32.0,29.4,23.74,SSE,155,4.0,8.1,90,0.00,,---,0.00,VWS V14.01,2013-03-09 16:13:00,
2013-03-09 09:19:00,31.8,29.2,23.74,SSW,196,3.1,7.2,90,0.00,,---,0.00,VWS V14.01,2013-03-09 16:19:00,
2013-03-09 09:24:00,32.0,29.7,23.74,SSE,163,8.1,8.7,91,0.00,,---,0.00,VWS V14.01,2013-03-09 16:24:00,
2013-03-09 09:30:00,32.0,29.7,23.74,NNE,20,8.1,8.1,91,0.00,,---,0.00,VWS V14.01,2013-03-09 16:30:00,
2013-03-09 09:36:00,32.0,29.9,23.74,SW,233,2.7,4.0,92,0.00,,---,0.00,VWS V14.01,2013-03-09 16:36:00,
2013-03-09 09:42:00,32.0,29.9,23.77,NE,49,2.2,2.7,92,0.00,,---,0.00,VWS V14.01,2013-03-09 16:42:00,
2013-03-09 09:48:00,32.0,29.9,23.77,East,95,0.0,0.0,92,0.00,,---,0.00,VWS V14.01,2013-03-09 16:48:00,
2013-03-09 09:54:00,32.0,29.9,23.77,South,173,4.0,6.3,92,0.00,,---,0.00,VWS V14.01,2013-03-09 16:54:00,
2013-03-09 10:00:00,32.0,29.9,23.77,NNE,15,5.4,5.4,92,0.00,,---,0.00,VWS V14.01,2013-03-09 17:00:00,
2013-03-09 10:05:00,32.0,29.9,23.77,ESE,108,2.2,3.1,92,0.00,,---,0.00,VWS V14.01,2013-03-09 17:05:00,
2013-03-09 10:11:00,31.6,29.9,23.77,South,172,6.3,7.2,93,0.00,,---,0.00,VWS V14.01,2013-03-09 17:11:00,
2013-03-09 10:17:00,31.8,30.0,23.77,ENE,64,2.7,2.7,93,0.00,,---,0.00,VWS V14.01,2013-03-09 17:17:00,
2013-03-09 10:23:00,32.0,30.2,23.77,NNE,31,0.0,3.1,93,0.00,,---,0.00,VWS V14.01,2013-03-09 17:23:00,
2013-03-09 10:29:00,32.0,30.2,23.77,SSE,161,0.0,4.9,93,0.00,,---,0.00,VWS V14.01,2013-03-09 17:29:00,
2013-03-09 10:34:00,32.0,30.2,23.77,SSE,147,0.0,5.8,93,0.00,,---,0.00,VWS V14.01,2013-03-09 17:34:00,
2013-03-09 10:40:00,32.0,30.2,23.77,East,79,5.8,5.8,93,0.00,,---,0.00,VWS V14.01,2013-03-09 17:40:00,
2013-03-09 10:46:00,32.0,30.2,23.77,ENE,72,0.0,2.7,93,0.00,,---,0.00,VWS V14.01,2013-03-09 17:46:00,
2013-03-09 10:51:00,32.0,30.2,23.77,SE,135,3.1,5.4,93,0.00,,---,0.00,VWS V14.01,2013-03-09 17:51:00,
2013-03-09 10:56:00,32.0,30.2,23.77,South,186,5.4,5.4,93,0.00,,---,0.00,VWS V14.01,2013-03-09 17:56:00,
2013-03-09 11:02:00,31.8,30.3,23.77,East,82,6.3,8.1,94,0.00,,---,0.00,VWS V14.01,2013-03-09 18:02:00,
2013-03-09 11:08:00,32.0,30.5,23.77,SW,228,2.7,2.7,94,0.00,,---,0.00,VWS V14.01,2013-03-09 18:08:00,
2013-03-09 11:13:00,32.0,30.5,23.77,SW,236,2.2,8.1,94,0.00,,---,0.00,VWS V14.01,2013-03-09 18:13:00,
2013-03-09 11:19:00,32.0,30.5,23.77,ENE,66,0.0,8.1,94,0.00,,---,0.00,VWS V14.01,2013-03-09 18:19:00,
2013-03-09 11:24:00,32.0,30.5,23.77,NNE,27,4.9,4.9,94,0.00,,---,0.00,VWS V14.01,2013-03-09 18:24:00,
2013-03-09 11:30:00,31.8,30.3,23.77,SSE,165,3.1,8.7,94,0.00,,---,0.00,VWS V14.01,2013-03-09 18:30:00,
2013-03-09 11:36:00,31.5,29.9,23.77,East,89,10.5,10.5,94,0.00,,---,0.00,VWS V14.01,2013-03-09 18:36:00,
2013-03-09 11:42:00,31.3,29.8,23.77,ENE,62,0.0,6.3,94,0.00,,---,0.00,VWS V14.01,2013-03-09 18:42:00,
2013-03-09 11:48:00,31.3,29.8,23.77,SE,141,5.8,11.0,94,0.00,,---,0.00,VWS V14.01,2013-03-09 18:48:00,
2013-03-09 11:53:00,31.3,29.8,23.77,ENE,73,4.0,8.7,94,0.00,,---,0.00,VWS V14.01,2013-03-09 18:53:00,
2013-03-09 11:58:00,31.5,29.9,23.77,East,96,2.7,4.9,94,0.00,,---,0.00,VWS V14.01,2013-03-09 18:58:00,
2013-03-09 12:04:00,31.5,29.9,23.77,WSW,243,0.0,2.2,94,0.00,,---,0.00,VWS V14.01,2013-03-09 19:04:00,
2013-03-09 12:09:00,31.5,29.9,23.77,SW,222,4.0,7.6,94,0.00,,---,0.00,VWS V14.01,2013-03-09 19:09:00,
2013-03-09 12:14:00,31.5,29.9,23.80,South,183,4.5,5.8,94,0.00,,---,0.00,VWS V14.01,2013-03-09 19:14:00,
2013-03-09 12:20:00,31.5,29.9,23.80,WSW,253,6.3,6.3,94,0.00,,---,0.00,VWS V14.01,2013-03-09 19:20:00,
2013-03-09 12:26:00,31.1,29.6,23.77,NNE,19,4.0,8.3,94,0.00,,---,0.00,VWS V14.01,2013-03-09 19:26:00,
2013-03-09 12:31:00,31.1,29.6,23.77,ESE,106,7.2,7.2,94,0.00,,---,0.00,VWS V14.01,2013-03-09 19:31:00,
2013-03-09 12:37:00,30.7,29.2,23.77,NW,309,0.0,9.2,94,0.00,,---,0.00,VWS V14.01,2013-03-09 19:37:00,
2013-03-09 12:43:00,30.2,28.7,23.80,SSW,203,10.5,10.5,94,0.00,,---,0.00,VWS V14.01,2013-03-09 19:43:00,
2013-03-09 12:49:00,30.2,28.7,23.80,SSE,159,4.0,4.0,94,0.00,,---,0.00,VWS V14.01,2013-03-09 19:49:00,
2013-03-09 12:55:00,30.2,28.7,23.80,NNE,17,5.4,8.1,94,0.00,,---,0.00,VWS V14.01,2013-03-09 19:55:00,
2013-03-09 13:00:00,30.2,28.7,23.80,ESE,123,7.6,7.6,94,0.00,,---,0.00,VWS V14.01,2013-03-09 20:00:00,
2013-03-09 13:06:00,30.0,28.5,23.80,ENE,65,8.1,10.5,94,0.00,,---,0.00,VWS V14.01,2013-03-09 20:06:00,
2013-03-09 13:12:00,29.8,28.3,23.80,SSW,213,0.0,8.3,94,0.00,,---,0.00,VWS V14.01,2013-03-09 20:12:00,
2013-03-09 13:17:00,29.8,28.3,23.80,NE,46,7.6,8.7,94,0.00,,---,0.00,VWS V14.01,2013-03-09 20:17:00,
2013-03-09 13:23:00,29.8,28.3,23.80,South,171,8.3,8.3,94,0.00,,---,0.00,VWS V14.01,2013-03-09 20:23:00,
2013-03-09 13:28:00,29.8,28.3,23.80,NE,35,3.1,8.1,94,0.00,,---,0.00,VWS V14.01,2013-03-09 20:28:00,
2013-03-09 13:34:00,30.0,28.5,23.80,NNW,330,6.3,6.3,94,0.00,,---,0.00,VWS V14.01,2013-03-09 20:34:00,
2013-03-09 13:40:00,30.0,28.5,23.80,SSE,160,0.0,5.4,94,0.00,,---,0.00,VWS V14.01,2013-03-09 20:40:00,
2013-03-09 13:45:00,30.0,28.5,23.80,SW,216,4.0,8.1,94,0.00,,---,0.00,VWS V14.01,2013-03-09 20:45:00,
2013-03-09 13:51:00,30.0,28.5,23.80,SSW,203,5.4,5.8,94,0.00,,---,0.00,VWS V14.01,2013-03-09 20:51:00,
2013-03-09 13:57:00,30.0,28.5,23.80,South,180,7.6,8.7,94,0.00,,---,0.00,VWS V14.01,2013-03-09 20:57:00,
2013-03-09 14:03:00,30.0,28.5,23.80,ESE,108,5.8,11.9,94,0.00,,---,0.00,VWS V14.01,2013-03-09 21:03:00,
2013-03-09 14:09:00,29.8,28.3,23.80,East,88,3.1,4.0,94,0.00,,---,0.00,VWS V14.01,2013-03-09 21:09:00,
2013-03-09 14:15:00,29.8,28.3,23.83,East,94,3.1,4.9,94,0.00,,---,0.00,VWS V14.01,2013-03-09 21:15:00,
2013-03-09 14:21:00,29.8,28.3,23.83,NE,49,5.8,8.3,94,0.00,,---,0.00,VWS V14.01,2013-03-09 21:21:00,
2013-03-09 14:27:00,29.5,28.0,23.83,SE,135,4.9,4.9,94,0.00,,---,0.00,VWS V14.01,2013-03-09 21:27:00,
2013-03-09 14:33:00,29.5,28.0,23.83,South,172,0.0,4.9,94,0.00,,---,0.00,VWS V14.01,2013-03-09 21:33:00,
2013-03-09 14:39:00,29.5,28.0,23.83,ENE,73,5.8,5.8,94,0.00,,---,0.00,VWS V14.01,2013-03-09 21:39:00,
2013-03-09 14:44:00,29.3,27.8,23.83,East,86,7.6,7.6,94,0.00,,---,0.00,VWS V14.01,2013-03-09 21:44:00,
2013-03-09 14:50:00,28.9,27.4,23.83,ESE,107,5.4,8.3,94,0.00,,---,0.00,VWS V14.01,2013-03-09 21:50:00,
2013-03-09 14:55:00,28.9,27.4,23.83,ENE,63,2.2,3.1,94,0.00,,---,0.00,VWS V14.01,2013-03-09 21:55:00,
2013-03-09 15:01:00,29.1,27.6,23.83,SE,137,2.7,2.7,94,0.00,,---,0.00,VWS V14.01,2013-03-09 22:01:00,
2013-03-09 15:07:00,29.1,27.6,23.83,NNE,29,0.0,2.7,94,0.00,,---,0.00,VWS V14.01,2013-03-09 22:07:00,
2013-03-09 15:13:00,29.1,27.6,23.83,ESE,102,3.6,7.6,94,0.00,,---,0.00,VWS V14.01,2013-03-09 22:13:00,
2013-03-09 15:19:00,29.1,27.6,23.83,ESE,103,2.7,2.7,94,0.00,,---,0.00,VWS V14.01,2013-03-09 22:19:00,
2013-03-09 15:24:00,29.3,27.8,23.83,NE,56,2.2,4.0,94,0.00,,---,0.00,VWS V14.01,2013-03-09 22:24:00,
2013-03-09 15:30:00,29.5,28.0,23.83,NE,44,2.2,4.0,94,0.00,,---,0.00,VWS V14.01,2013-03-09 22:30:00,
2013-03-09 15:35:00,29.5,28.0,23.83,NE,43,2.7,2.7,94,0.00,,---,0.00,VWS V14.01,2013-03-09 22:35:00,
2013-03-09 15:41:00,29.7,28.1,23.83,NNE,24,3.1,3.1,94,0.00,,---,0.00,VWS V14.01,2013-03-09 22:41:00,
2013-03-09 15:46:00,29.8,28.3,23.83,ESE,117,0.0,0.0,94,0.00,,---,0.00,VWS V14.01,2013-03-09 22:46:00,
2013-03-09 15:52:00,29.8,28.3,23.83,ESE,120,2.2,3.1,94,0.00,,---,0.00,VWS V14.01,2013-03-09 22:52:00,
2013-03-09 15:58:00,29.8,28.3,23.83,ENE,69,4.0,4.0,94,0.00,,---,0.00,VWS V14.01,2013-03-09 22:58:00,
2013-03-09 16:04:00,29.8,28.3,23.83,WNW,291,2.2,3.6,94,0.00,,---,0.00,VWS V14.01,2013-03-09 23:04:00,
2013-03-09 16:10:00,29.8,28.3,23.86,North,0,0.0,2.7,94,0.00,,---,0.00,VWS V14.01,2013-03-09 23:10:00,
2013-03-09 16:16:00,29.8,28.3,23.86,North,357,0.0,2.7,94,0.00,,---,0.00,VWS V14.01,2013-03-09 23:16:00,
2013-03-09 16:22:00,29.8,28.6,23.86,ENE,77,0.0,3.1,95,0.00,,---,0.00,VWS V14.01,2013-03-09 23:22:00,
2013-03-09 16:27:00,29.8,28.6,23.86,NNE,26,2.7,3.1,95,0.00,,---,0.00,VWS V14.01,2013-03-09 23:27:00,
2013-03-09 16:33:00,29.8,28.6,23.86,North,353,3.1,4.0,95,0.00,,---,0.00,VWS V14.01,2013-03-09 23:33:00,
2013-03-09 16:39:00,29.8,28.6,23.86,NNE,20,5.8,5.8,95,0.00,,---,0.00,VWS V14.01,2013-03-09 23:39:00,
2013-03-09 16:45:00,30.0,28.8,23.86,NNE,19,0.0,3.6,95,0.00,,---,0.00,VWS V14.01,2013-03-09 23:45:00,
2013-03-09 16:51:00,30.0,28.8,23.86,NNE,22,4.0,4.9,95,0.00,,---,0.00,VWS V14.01,2013-03-09 23:51:00,
2013-03-09 16:57:00,30.0,28.8,23.86,NE,54,2.7,4.0,95,0.00,,---,0.00,VWS V14.01,2013-03-09 23:57:00,
2013-03-09 17:03:00,30.0,28.8,23.86,SE,140,4.0,5.4,95,0.00,,---,0.00,VWS V14.01,2013-03-10 00:03:00,
2013-03-09 17:09:00,30.0,28.8,23.86,ENE,68,2.7,2.7,95,0.00,,---,0.00,VWS V14.01,2013-03-10 00:09:00,
2013-03-09 17:15:00,30.0,28.8,23.89,ESE,102,0.0,0.0,95,0.00,,---,0.00,VWS V14.01,2013-03-10 00:15:00,
2013-03-09 17:21:00,30.0,28.8,23.89,East,90,0.0,3.1,95,0.00,,---,0.00,VWS V14.01,2013-03-10 00:21:00,
2013-03-09 17:27:00,30.0,28.8,23.89,NNE,16,0.0,0.0,95,0.00,,---,0.00,VWS V14.01,2013-03-10 00:27:00,
2013-03-09 17:33:00,30.0,28.8,23.89,NE,46,0.0,0.0,95,0.00,,---,0.00,VWS V14.01,2013-03-10 00:33:00,
2013-03-09 17:39:00,30.0,28.8,23.89,NE,46,0.0,0.0,95,0.00,,---,0.00,VWS V14.01,2013-03-10 00:39:00,
2013-03-09 17:44:00,29.8,28.6,23.89,NE,46,0.0,0.0,95,0.00,,---,0.00,VWS V14.01,2013-03-10 00:44:00,
2013-03-09 17:50:00,29.8,28.6,23.89,NE,46,0.0,0.0,95,0.00,,---,0.00,VWS V14.01,2013-03-10 00:50:00,
2013-03-09 17:56:00,29.7,28.4,23.89,NE,46,0.0,0.0,95,0.00,,---,0.00,VWS V14.01,2013-03-10 00:56:00,
2013-03-09 18:02:00,29.5,28.2,23.89,NE,46,0.0,0.0,95,0.00,,---,0.00,VWS V14.01,2013-03-10 01:02:00,
2013-03-09 18:07:00,29.3,28.0,23.89,NE,46,0.0,0.0,95,0.00,,---,0.00,VWS V14.01,2013-03-10 01:07:00,
2013-03-09 18:12:00,29.1,27.9,23.89,NE,46,0.0,0.0,95,0.00,,---,0.00,VWS V14.01,2013-03-10 01:12:00,
2013-03-09 18:18:00,28.8,27.5,23.89,NE,46,0.0,0.0,95,0.00,,---,0.00,VWS V14.01,2013-03-10 01:18:00,
2013-03-09 18:24:00,28.6,27.3,23.89,NE,46,0.0,0.0,95,0.00,,---,0.00,VWS V14.01,2013-03-10 01:24:00,
2013-03-09 18:30:00,28.4,27.1,23.92,West,274,4.0,4.0,95,0.00,,---,0.00,VWS V14.01,2013-03-10 01:30:00,
2013-03-09 18:36:00,28.2,27.0,23.92,West,271,0.0,0.0,95,0.00,,---,0.00,VWS V14.01,2013-03-10 01:36:00,
2013-03-09 18:41:00,28.0,26.8,23.92,West,271,0.0,0.0,95,0.00,,---,0.00,VWS V14.01,2013-03-10 01:41:00,
2013-03-09 18:46:00,27.9,26.6,23.92,West,271,0.0,0.0,95,0.00,,---,0.00,VWS V14.01,2013-03-10 01:46:00,
2013-03-09 18:51:00,27.5,26.3,23.92,West,271,0.0,0.0,95,0.00,,---,0.00,VWS V14.01,2013-03-10 01:51:00,
2013-03-09 18:57:00,27.3,26.1,23.92,West,271,0.0,0.0,95,0.00,,---,0.00,VWS V14.01,2013-03-10 01:57:00,
2013-03-09 19:03:00,27.0,25.7,23.92,West,271,0.0,0.0,95,0.00,,---,0.00,VWS V14.01,2013-03-10 02:03:00,
2013-03-09 19:09:00,26.8,25.5,23.92,West,271,0.0,0.0,95,0.00,,---,0.00,VWS V14.01,2013-03-10 02:09:00,
2013-03-09 19:15:00,26.4,25.2,23.95,West,271,0.0,0.0,95,0.00,,---,0.00,VWS V14.01,2013-03-10 02:15:00,
2013-03-09 19:20:00,26.1,24.8,23.95,WNW,295,3.6,3.6,95,0.00,,---,0.00,VWS V14.01,2013-03-10 02:20:00,
2013-03-09 19:26:00,26.1,24.6,23.95,North,5,0.0,0.0,94,0.00,,---,0.00,VWS V14.01,2013-03-10 02:26:00,
2013-03-09 19:32:00,25.7,24.2,23.95,North,5,0.0,0.0,94,0.00,,---,0.00,VWS V14.01,2013-03-10 02:32:00,
2013-03-09 19:37:00,25.3,23.9,23.95,North,5,0.0,0.0,94,0.00,,---,0.00,VWS V14.01,2013-03-10 02:37:00,
2013-03-09 19:43:00,25.2,23.7,23.95,North,5,0.0,0.0,94,0.00,,---,0.00,VWS V14.01,2013-03-10 02:43:00,
2013-03-09 19:49:00,24.8,23.3,23.95,North,5,0.0,0.0,94,0.00,,---,0.00,VWS V14.01,2013-03-10 02:49:00,
2013-03-09 19:55:00,24.4,23.0,23.98,North,5,0.0,0.0,94,0.00,,---,0.00,VWS V14.01,2013-03-10 02:55:00,
2013-03-09 20:01:00,24.4,22.7,23.98,NNW,338,3.6,3.6,93,0.00,,---,0.00,VWS V14.01,2013-03-10 03:01:00,
2013-03-09 20:06:00,24.4,22.7,23.98,WNW,289,0.0,0.0,93,0.00,,---,0.00,VWS V14.01,2013-03-10 03:06:00,
2013-03-09 20:12:00,24.4,22.7,23.98,East,91,0.0,0.0,93,0.00,,---,0.00,VWS V14.01,2013-03-10 03:12:00,
2013-03-09 20:17:00,25.2,23.2,23.98,East,84,4.0,4.0,92,0.00,,---,0.00,VWS V14.01,2013-03-10 03:17:00,
2013-03-09 20:23:00,25.7,23.7,23.98,South,178,3.6,6.3,92,0.00,,---,0.00,VWS V14.01,2013-03-10 03:23:00,
2013-03-09 20:28:00,26.1,24.1,23.98,ESE,115,0.0,4.9,92,0.00,,---,0.00,VWS V14.01,2013-03-10 03:28:00,
2013-03-09 20:34:00,26.4,24.4,23.98,WSW,244,0.0,2.2,92,0.00,,---,0.00,VWS V14.01,2013-03-10 03:34:00,
2013-03-09 20:39:00,26.2,24.2,23.98,ENE,72,3.6,8.3,92,0.00,,---,0.00,VWS V14.01,2013-03-10 03:39:00,
2013-03-09 20:45:00,26.2,24.0,23.98,South,182,3.6,4.0,91,0.00,,---,0.00,VWS V14.01,2013-03-10 03:45:00,
2013-03-09 20:50:00,26.2,24.0,23.98,WSW,244,5.8,5.8,91,0.00,,---,0.00,VWS V14.01,2013-03-10 03:50:00,
2013-03-09 20:56:00,26.1,23.8,24.01,WNW,285,0.0,4.0,91,0.00,,---,0.00,VWS V14.01,2013-03-10 03:56:00,
2013-03-09 21:02:00,25.9,23.6,24.01,SW,231,0.0,0.0,91,0.00,,---,0.00,VWS V14.01,2013-03-10 04:02:00,
2013-03-09 21:07:00,25.3,22.8,24.01,South,190,0.0,0.0,90,0.00,,---,0.00,VWS V14.01,2013-03-10 04:07:00,
2013-03-09 21:12:00,24.6,22.1,24.01,NE,42,2.7,3.6,90,0.00,,---,0.00,VWS V14.01,2013-03-10 04:12:00,
2013-03-09 21:18:00,24.3,21.8,24.01,WNW,285,0.0,4.9,90,0.00,,---,0.00,VWS V14.01,2013-03-10 04:18:00,
2013-03-09 21:24:00,24.3,21.8,24.01,WSW,254,0.0,2.2,90,0.00,,---,0.00,VWS V14.01,2013-03-10 04:24:00,
2013-03-09 21:30:00,23.5,21.0,24.01,WSW,250,0.0,0.0,90,0.00,,---,0.00,VWS V14.01,2013-03-10 04:30:00,
2013-03-09 21:36:00,23.7,21.0,24.01,WNW,290,0.0,0.0,89,0.00,,---,0.00,VWS V14.01,2013-03-10 04:36:00,
2013-03-09 21:42:00,23.7,21.0,24.01,West,275,3.1,3.1,89,0.00,,---,0.00,VWS V14.01,2013-03-10 04:42:00,
2013-03-09 21:48:00,23.0,20.2,24.01,West,279,0.0,0.0,89,0.00,,---,0.00,VWS V14.01,2013-03-10 04:48:00,
2013-03-09 21:54:00,22.5,19.7,24.01,SSE,167,3.6,3.6,89,0.00,,---,0.00,VWS V14.01,2013-03-10 04:54:00,
2013-03-09 22:00:00,22.1,19.1,24.04,SSE,167,0.0,0.0,88,0.00,,---,0.00,VWS V14.01,2013-03-10 05:00:00,
2013-03-09 22:01:00,21.9,18.9,24.04,SSE,167,0.0,0.0,88,0.00,,---,0.00,VWS V14.01,2013-03-10 05:01:00,
2013-03-09 22:03:00,21.9,18.9,24.04,South,191,0.0,0.0,88,0.00,,---,0.00,VWS V14.01,2013-03-10 05:03:00,
2013-03-09 22:04:00,21.9,18.9,24.04,South,191,0.0,0.0,88,0.00,,---,0.00,VWS V14.01,2013-03-10 05:04:00,
2013-03-09 22:10:00,21.2,18.2,24.04,SSW,195,0.0,0.0,88,0.00,,---,0.00,VWS V14.01,2013-03-10 05:10:00,
2013-03-09 22:16:00,21.0,17.8,24.04,South,181,0.0,3.6,87,0.00,,---,0.00,VWS V14.01,2013-03-10 05:16:00,
2013-03-09 22:21:00,20.5,17.0,24.04,SSW,210,0.0,0.0,86,0.00,,---,0.00,VWS V14.01,2013-03-10 05:21:00,
2013-03-09 22:27:00,20.1,16.6,24.04,SSW,205,0.0,0.0,86,0.00,,---,0.00,VWS V14.01,2013-03-10 05:27:00,
2013-03-09 22:33:00,19.8,16.0,24.04,West,281,0.0,0.0,85,0.00,,---,0.00,VWS V14.01,2013-03-10 05:33:00,
2013-03-09 22:38:00,19.4,15.6,24.04,SSW,193,0.0,0.0,85,0.00,,---,0.00,VWS V14.01,2013-03-10 05:38:00,
2013-03-09 22:44:00,19.2,15.2,24.04,SSW,193,0.0,0.0,84,0.00,,---,0.00,VWS V14.01,2013-03-10 05:44:00,
2013-03-09 22:50:00,18.7,14.4,24.04,West,277,0.0,0.0,83,0.00,,---,0.00,VWS V14.01,2013-03-10 05:50:00,
2013-03-09 22:56:00,18.3,14.0,24.04,SW,216,0.0,0.0,83,0.00,,---,0.00,VWS V14.01,2013-03-10 05:56:00,
2013-03-09 23:02:00,18.1,13.6,24.04,WSW,258,0.0,0.0,82,0.00,,---,0.00,VWS V14.01,2013-03-10 06:02:00,
2013-03-09 23:08:00,17.8,13.2,24.04,NNW,334,0.0,0.0,82,0.00,,---,0.00,VWS V14.01,2013-03-10 06:08:00,
2013-03-09 23:14:00,17.6,13.1,24.04,NNW,334,0.0,0.0,82,0.00,,---,0.00,VWS V14.01,2013-03-10 06:14:00,
2013-03-09 23:20:00,17.4,12.9,24.04,NNW,334,0.0,0.0,82,0.00,,---,0.00,VWS V14.01,2013-03-10 06:20:00,
2013-03-09 23:26:00,17.1,12.2,24.04,NNW,334,0.0,0.0,81,0.00,,---,0.00,VWS V14.01,2013-03-10 06:26:00,
2013-03-09 23:31:00,16.9,12.1,24.04,NNW,334,0.0,0.0,81,0.00,,---,0.00,VWS V14.01,2013-03-10 06:31:00,
2013-03-09 23:37:00,16.5,11.7,24.04,NNW,334,0.0,0.0,81,0.00,,---,0.00,VWS V14.01,2013-03-10 06:37:00,
2013-03-09 23:42:00,16.2,11.1,24.04,NNW,334,0.0,0.0,80,0.00,,---,0.00,VWS V14.01,2013-03-10 06:42:00,
2013-03-09 23:47:00,16.0,10.9,24.04,WNW,283,0.0,0.0,80,0.00,,---,0.00,VWS V14.01,2013-03-10 06:47:00,
2013-03-09 23:53:00,15.6,10.6,24.04,SW,228,0.0,0.0,80,0.00,,---,0.00,VWS V14.01,2013-03-10 06:53:00,
2013-03-09 23:58:00,15.4,10.4,24.04,SW,230,0.0,0.0,80,0.00,,---,0.00,VWS V14.01,2013-03-10 06:58:00,